Time;durP1;ratioP1;P1;durP2;ratioP2;P2;SDS_P1;SDS_P2;PMS_P1;PMS_P2;Temp;Humidity;BMP_temperature;BMP_pressure;BME280_temperature;BME280_humidity;BME280_pressure;Samples;Min_cycle;Max_cycle;Signal;HPM_P1;HPM_P2
2023/08/25 00:02:50;;;;;;;20.25;17.35;;;20.50;99.90;;;;;;6277899;28;20040;-80
2023/08/25 00:05:53;;;;;;;23.50;16.70;;;20.50;99.90;;;;;;6276548;28;20041;-80
2023/08/25 00:08:54;;;;;;;20.52;17.00;;;20.50;99.90;;;;;;6277314;28;20486;-79
2023/08/25 00:11:57;;;;;;;17.77;15.88;;;20.50;99.90;;;;;;6278212;28;20359;-79
2023/08/25 00:14:59;;;;;;;20.65;16.08;;;20.40;99.90;;;;;;6279435;28;20059;-80
2023/08/25 00:18:01;;;;;;;22.48;16.75;;;20.40;99.90;;;;;;6277877;28;20125;-81
2023/08/25 00:21:04;;;;;;;15.93;14.20;;;20.30;99.90;;;;;;6279041;28;20473;-80
2023/08/25 00:24:06;;;;;;;18.27;15.57;;;20.30;99.90;;;;;;6280279;28;20136;-79
2023/08/25 00:27:09;;;;;;;17.85;15.73;;;20.20;99.90;;;;;;6280121;28;20049;-79
2023/08/25 00:30:12;;;;;;;27.45;16.08;;;20.10;99.90;;;;;;6260247;28;20056;-79
2023/08/25 00:33:13;;;;;;;20.48;16.20;;;20.10;99.90;;;;;;6252645;28;20053;-80
2023/08/25 00:36:15;;;;;;;26.83;15.80;;;20.10;99.90;;;;;;6253273;28;20829;-79
2023/08/25 00:39:17;;;;;;;18.35;14.70;;;20.00;99.90;;;;;;6253454;28;20082;-79
2023/08/25 00:42:20;;;;;;;20.67;16.38;;;20.00;99.90;;;;;;6253088;28;20417;-80
2023/08/25 00:45:23;;;;;;;21.30;16.63;;;20.00;99.90;;;;;;6252812;28;20041;-80
2023/08/25 00:48:24;;;;;;;21.60;15.55;;;20.00;99.90;;;;;;6254955;28;20041;-81
2023/08/25 00:51:26;;;;;;;18.40;14.77;;;20.00;99.90;;;;;;6261013;28;20419;-79
2023/08/25 00:54:30;;;;;;;22.70;14.20;;;20.00;99.90;;;;;;6251670;28;20041;-80
2023/08/25 00:57:33;;;;;;;23.92;16.60;;;20.00;99.90;;;;;;6251453;28;20109;-79
2023/08/25 01:00:35;;;;;;;18.13;15.80;;;19.80;99.90;;;;;;6250554;28;20516;-80
2023/08/25 01:03:39;;;;;;;25.15;15.10;;;19.80;99.90;;;;;;6251663;28;20049;-78
2023/08/25 01:06:41;;;;;;;20.05;15.73;;;19.80;99.90;;;;;;6249946;28;20044;-78
2023/08/25 01:09:43;;;;;;;19.02;14.65;;;19.70;99.90;;;;;;6249958;28;20041;-81
2023/08/25 01:12:58;;;;;;;17.38;14.90;;;19.70;99.90;;;;;;6254799;28;20041;-81
2023/08/25 01:16:00;;;;;;;22.67;14.85;;;19.70;99.90;;;;;;6257504;28;20128;-81
2023/08/25 01:19:06;;;;;;;19.52;13.52;;;19.60;99.90;;;;;;6258632;28;20084;-79
2023/08/25 01:22:13;;;;;;;19.98;15.50;;;19.60;99.90;;;;;;6257835;28;20057;-81
2023/08/25 01:25:24;;;;;;;;;;;19.50;99.90;;;;;;6256449;28;20049;-79
2023/08/25 01:28:26;;;;;;;16.33;13.20;;;19.50;99.90;;;;;;6254264;28;19920;-80
2023/08/25 01:31:28;;;;;;;13.85;12.38;;;19.50;99.90;;;;;;6256260;28;20053;-79
2023/08/25 01:34:30;;;;;;;16.38;12.70;;;19.50;99.90;;;;;;6254220;28;20209;-79
2023/08/25 01:37:37;;;;;;;14.38;12.45;;;19.50;99.90;;;;;;6264036;28;20053;-79
2023/08/25 01:40:45;;;;;;;15.65;11.70;;;19.50;99.90;;;;;;6279052;28;20055;-78
2023/08/25 01:43:50;;;;;;;16.58;13.07;;;19.50;99.90;;;;;;6278939;28;20049;-79
2023/08/25 01:46:54;;;;;;;12.10;10.48;;;19.50;99.90;;;;;;6277580;28;20056;-80
2023/08/25 01:49:58;;;;;;;12.82;11.57;;;19.50;99.90;;;;;;6277655;28;20096;-80
2023/08/25 01:52:59;;;;;;;13.35;12.05;;;19.50;99.90;;;;;;6276568;28;20428;-78
2023/08/25 01:56:03;;;;;;;14.90;11.70;;;19.60;99.90;;;;;;6276761;28;20045;-78
2023/08/25 01:59:05;;;;;;;14.15;12.75;;;19.60;99.90;;;;;;6278367;28;20045;-79
2023/08/25 02:02:07;;;;;;;18.55;11.93;;;19.60;99.90;;;;;;6277804;28;20053;-80
2023/08/25 02:05:09;;;;;;;14.88;12.63;;;19.60;99.90;;;;;;6276627;28;20041;-79
2023/08/25 02:08:11;;;;;;;12.07;10.98;;;19.60;99.90;;;;;;6276080;28;20072;-79
2023/08/25 02:11:14;;;;;;;12.82;11.52;;;19.60;99.90;;;;;;6279110;28;20469;-79
2023/08/25 02:14:15;;;;;;;11.40;10.05;;;19.60;99.90;;;;;;6279398;28;20071;-79
2023/08/25 02:17:17;;;;;;;15.43;10.32;;;19.50;99.90;;;;;;6279532;28;20045;-81
2023/08/25 02:20:19;;;;;;;18.88;9.80;;;19.50;99.90;;;;;;6279974;28;20468;-79
2023/08/25 02:23:21;;;;;;;15.88;10.35;;;19.60;99.90;;;;;;6278888;28;20059;-79
2023/08/25 02:26:24;;;;;;;15.23;11.13;;;19.50;99.90;;;;;;6278447;28;20074;-79
2023/08/25 02:29:26;;;;;;;16.23;10.98;;;19.50;99.90;;;;;;6277885;28;20048;-79
2023/08/25 02:32:27;;;;;;;13.60;10.32;;;19.50;99.90;;;;;;6279774;28;20527;-78
2023/08/25 02:35:29;;;;;;;17.13;11.77;;;19.50;99.90;;;;;;6280221;28;20052;-79
2023/08/25 02:38:31;;;;;;;13.50;10.15;;;19.40;99.90;;;;;;6281317;28;20053;-78
2023/08/25 02:41:34;;;;;;;19.92;10.55;;;19.40;99.90;;;;;;6282742;28;20052;-80
2023/08/25 02:44:36;;;;;;;13.57;10.20;;;19.40;99.90;;;;;;6279125;28;20056;-80
2023/08/25 02:47:37;;;;;;;11.00;9.75;;;19.40;99.90;;;;;;6279320;28;20049;-80
2023/08/25 02:50:39;;;;;;;16.85;9.10;;;19.40;99.90;;;;;;6278416;28;20044;-80
2023/08/25 02:53:41;;;;;;;12.10;9.85;;;19.40;99.90;;;;;;6277662;28;20047;-80
2023/08/25 02:56:44;;;;;;;13.48;9.88;;;19.30;99.90;;;;;;6277174;28;20045;-78
2023/08/25 02:59:45;;;;;;;14.07;10.20;;;19.30;99.90;;;;;;6278374;28;20255;-79
2023/08/25 03:02:47;;;;;;;20.50;11.27;;;19.30;99.90;;;;;;6276794;28;20045;-80
2023/08/25 03:05:49;;;;;;;20.30;9.43;;;19.20;99.90;;;;;;6278544;28;20519;-79
2023/08/25 03:08:51;;;;;;;10.07;9.07;;;19.20;99.90;;;;;;6276098;28;20051;-80
2023/08/25 03:11:54;;;;;;;13.45;9.30;;;19.20;99.90;;;;;;6275559;28;20045;-80
2023/08/25 03:14:56;;;;;;;17.08;9.80;;;19.10;99.90;;;;;;6276959;28;20048;-78
2023/08/25 03:17:58;;;;;;;14.50;9.90;;;19.20;99.90;;;;;;6278555;28;20048;-80
2023/08/25 03:20:59;;;;;;;13.65;9.35;;;19.10;99.90;;;;;;6277873;28;20056;-80
2023/08/25 03:24:01;;;;;;;12.60;9.40;;;19.10;99.90;;;;;;6278174;28;20472;-78
2023/08/25 03:27:04;;;;;;;19.13;10.38;;;19.10;99.90;;;;;;6278285;28;20041;-79
2023/08/25 03:30:07;;;;;;;10.57;9.45;;;19.10;99.90;;;;;;6277430;28;20158;-79
2023/08/25 03:33:09;;;;;;;11.07;9.80;;;19.00;99.90;;;;;;6277062;28;20045;-78
2023/08/25 03:36:10;;;;;;;11.45;8.57;;;19.10;99.90;;;;;;6277091;28;20053;-79
2023/08/25 03:39:12;;;;;;;17.33;10.38;;;19.00;99.90;;;;;;6277179;28;20045;-79
2023/08/25 03:42:15;;;;;;;16.42;10.50;;;19.00;99.90;;;;;;6276967;28;20055;-78
2023/08/25 03:45:17;;;;;;;14.27;9.40;;;19.00;99.90;;;;;;6274915;28;20156;-79
2023/08/25 03:48:19;;;;;;;15.15;9.95;;;19.00;99.90;;;;;;6275505;28;20049;-79
2023/08/25 03:51:21;;;;;;;13.18;8.85;;;19.00;99.90;;;;;;6275494;28;20049;-78
2023/08/25 03:54:23;;;;;;;13.13;10.35;;;19.00;99.90;;;;;;6274730;28;20045;-79
2023/08/25 03:57:26;;;;;;;11.38;10.10;;;19.00;99.90;;;;;;6274257;28;20045;-80
2023/08/25 04:00:27;;;;;;;15.07;9.73;;;19.00;99.90;;;;;;6281484;28;20041;-79
2023/08/25 04:03:29;;;;;;;15.13;9.43;;;19.00;99.90;;;;;;6275292;28;20048;-79
2023/08/25 04:06:31;;;;;;;14.00;9.93;;;19.00;99.90;;;;;;6274620;28;20037;-79
2023/08/25 04:09:32;;;;;;;15.65;10.20;;;19.00;99.90;;;;;;6274273;28;20049;-80
2023/08/25 04:12:35;;;;;;;17.70;10.07;;;19.00;99.90;;;;;;6275053;28;20044;-79
2023/08/25 04:15:37;;;;;;;12.75;9.45;;;19.00;99.90;;;;;;6275239;28;20056;-79
2023/08/25 04:18:39;;;;;;;10.85;9.85;;;19.00;99.90;;;;;;6275911;28;20391;-79
2023/08/25 04:21:40;;;;;;;10.48;8.40;;;19.00;99.90;;;;;;6276889;28;20060;-79
2023/08/25 04:24:42;;;;;;;13.85;9.30;;;18.90;99.90;;;;;;6276909;28;20052;-79
2023/08/25 04:27:45;;;;;;;10.95;9.85;;;18.90;99.90;;;;;;6276700;28;20056;-79
2023/08/25 04:30:47;;;;;;;11.98;10.75;;;19.00;99.90;;;;;;6275269;28;20049;-79
2023/08/25 04:33:49;;;;;;;16.80;10.30;;;18.80;99.90;;;;;;6276012;28;20071;-80
2023/08/25 04:36:50;;;;;;;13.25;8.95;;;18.80;99.90;;;;;;6275413;28;20037;-79
2023/08/25 04:39:55;;;;;;;11.55;9.38;;;18.80;99.90;;;;;;6276229;28;20048;-78
2023/08/25 04:42:58;;;;;;;11.10;8.50;;;18.80;99.90;;;;;;6277286;28;20151;-78
2023/08/25 04:45:59;;;;;;;11.30;9.73;;;18.90;99.90;;;;;;6278818;28;20044;-79
2023/08/25 04:49:01;;;;;;;9.98;8.02;;;18.90;99.90;;;;;;6280851;28;20044;-79
2023/08/25 04:52:03;;;;;;;11.10;8.73;;;18.80;99.90;;;;;;6280559;28;20056;-78
2023/08/25 04:55:06;;;;;;;16.95;9.95;;;18.90;99.90;;;;;;6280105;28;20071;-78
2023/08/25 04:58:09;;;;;;;13.23;9.88;;;19.00;99.90;;;;;;6280855;28;20045;-79
2023/08/25 05:01:10;;;;;;;12.77;11.18;;;19.20;99.90;;;;;;6278388;28;20504;-78
2023/08/25 05:04:12;;;;;;;13.77;11.13;;;19.30;99.90;;;;;;6274900;28;20492;-78
2023/08/25 05:07:14;;;;;;;19.15;11.45;;;19.40;99.90;;;;;;6274432;28;20041;-78
2023/08/25 05:10:15;;;;;;;15.60;9.55;;;19.60;99.90;;;;;;6274892;28;20361;-78
2023/08/25 05:13:18;;;;;;;9.98;8.77;;;19.80;99.90;;;;;;6275046;28;20139;-79
2023/08/25 05:16:20;;;;;;;10.70;8.88;;;20.10;99.90;;;;;;6275622;28;20044;-78
2023/08/25 05:19:22;;;;;;;13.77;9.35;;;20.30;99.90;;;;;;6275267;28;20136;-78
2023/08/25 05:22:24;;;;;;;11.43;7.68;;;20.60;99.90;;;;;;6275057;28;20452;-78
2023/08/25 05:25:25;;;;;;;8.18;6.97;;;20.80;99.90;;;;;;6275560;28;20052;-78
2023/08/25 05:28:28;;;;;;;7.82;6.30;;;20.90;99.90;;;;;;6275496;28;20056;-78
2023/08/25 05:31:30;;;;;;;6.65;5.93;;;21.00;99.90;;;;;;6276493;28;20056;-78
2023/08/25 05:34:32;;;;;;;8.52;5.90;;;21.10;99.90;;;;;;6275328;28;20056;-78
2023/08/25 05:37:35;;;;;;;8.60;6.07;;;21.10;99.90;;;;;;6275297;28;20041;-78
2023/08/25 05:40:36;;;;;;;32.42;12.02;;;20.90;99.90;;;;;;6276261;28;20041;-78
2023/08/25 05:43:39;;;;;;;11.88;5.65;;;20.90;99.90;;;;;;6276788;28;20542;-79
2023/08/25 05:46:41;;;;;;;11.55;7.10;;;20.80;99.90;;;;;;6274723;28;20487;-78
2023/08/25 05:49:43;;;;;;;11.27;7.18;;;20.60;99.90;;;;;;6274670;28;20051;-79
2023/08/25 06:03:27;;;;;;;9.88;7.43;;;20.00;99.90;;;;;;6297103;28;20100;-78
2023/08/25 06:06:32;;;;;;;14.45;9.85;;;19.80;99.90;;;;;;6295673;28;20051;-79
2023/08/25 06:09:35;;;;;;;14.02;8.88;;;19.70;99.90;;;;;;6294425;28;20043;-79
2023/08/25 06:12:37;;;;;;;12.07;9.25;;;19.70;99.90;;;;;;6292809;28;20041;-78
2023/08/25 06:15:40;;;;;;;10.30;9.27;;;19.80;99.90;;;;;;6294318;28;20472;-78
2023/08/25 06:18:43;;;;;;;15.90;9.65;;;19.70;99.90;;;;;;6294019;28;20112;-79
2023/08/25 06:21:44;;;;;;;12.40;9.40;;;19.70;99.90;;;;;;6293425;28;20154;-78
2023/08/25 06:24:46;;;;;;;24.58;13.90;;;19.60;99.90;;;;;;6293184;28;20052;-77
2023/08/25 06:27:48;;;;;;;15.02;10.82;;;19.60;99.90;;;;;;6291655;28;20517;-78
2023/08/25 06:30:51;;;;;;;15.85;11.45;;;19.50;99.90;;;;;;6292669;28;20407;-78
2023/08/25 06:33:53;;;;;;;18.70;9.50;;;19.50;99.90;;;;;;6292566;28;20045;-78
2023/08/25 06:36:55;;;;;;;15.50;10.02;;;19.60;99.90;;;;;;6293734;28;20055;-78
2023/08/25 06:39:57;;;;;;;16.23;9.77;;;19.60;99.90;;;;;;6288078;28;20052;-78
2023/08/25 06:42:59;;;;;;;12.05;10.63;;;19.60;99.90;;;;;;6285590;28;20049;-79
2023/08/25 06:46:02;;;;;;;17.35;10.23;;;19.60;99.90;;;;;;6284833;28;20047;-79
2023/08/25 06:49:05;;;;;;;10.80;9.63;;;19.70;99.90;;;;;;6279641;28;20397;-79
2023/08/25 06:52:07;;;;;;;11.60;10.38;;;19.70;99.90;;;;;;6279564;28;20052;-78
2023/08/25 06:55:09;;;;;;;20.77;12.77;;;19.80;99.90;;;;;;6281985;28;20412;-79
2023/08/25 06:58:10;;;;;;;15.23;10.05;;;19.80;99.90;;;;;;6268210;28;20423;-79
2023/08/25 07:02:00;;;;;;;13.02;9.60;;;19.80;99.90;;;;;;6266507;28;20060;-80
2023/08/25 07:05:01;;;;;;;17.30;9.25;;;19.70;99.90;;;;;;6277751;28;20063;-80
2023/08/25 07:08:04;;;;;;;17.50;10.65;;;19.70;99.90;;;;;;6282209;28;20129;-77
2023/08/25 07:11:07;;;;;;;12.85;9.00;;;19.70;99.90;;;;;;6271585;28;20124;-78
2023/08/25 07:14:09;;;;;;;17.38;10.68;;;19.70;99.90;;;;;;6269756;28;20045;-77
2023/08/25 07:17:12;;;;;;;16.80;8.93;;;19.70;99.90;;;;;;6270101;28;20142;-78
2023/08/25 07:20:14;;;;;;;14.68;8.32;;;19.70;99.90;;;;;;6269895;28;20049;-77
2023/08/25 07:23:15;;;;;;;7.85;6.97;;;19.70;99.90;;;;;;6276198;28;20044;-77
2023/08/25 07:26:17;;;;;;;7.70;6.22;;;19.70;99.90;;;;;;6272926;28;20064;-77
2023/08/25 07:29:19;;;;;;;7.95;5.63;;;19.60;99.90;;;;;;6273842;28;20400;-78
2023/08/25 07:32:22;;;;;;;8.45;5.97;;;19.60;99.90;;;;;;6274825;28;20070;-77
2023/08/25 07:35:24;;;;;;;7.60;4.75;;;19.60;99.90;;;;;;6275652;28;20053;-77
2023/08/25 07:38:26;;;;;;;7.72;3.92;;;19.50;99.90;;;;;;6275088;28;20480;-78
2023/08/25 07:41:28;;;;;;;5.63;3.70;;;19.50;99.90;;;;;;6277579;28;20108;-78
2023/08/25 07:44:30;;;;;;;5.38;3.72;;;19.50;99.90;;;;;;6277562;28;20041;-80
2023/08/25 07:47:33;;;;;;;5.13;4.18;;;19.40;99.90;;;;;;6286202;28;20044;-81
2023/08/25 07:50:35;;;;;;;6.43;3.75;;;19.30;99.90;;;;;;6288410;28;20123;-81
2023/08/25 07:53:36;;;;;;;14.88;4.40;;;19.40;99.90;;;;;;6288245;28;20104;-79
2023/08/25 07:56:38;;;;;;;5.28;3.97;;;19.40;99.90;;;;;;6290234;28;20105;-79
2023/08/25 07:59:40;;;;;;;5.57;4.07;;;19.40;99.90;;;;;;6290222;28;20041;-79
2023/08/25 08:02:43;;;;;;;10.90;5.28;;;19.40;99.90;;;;;;6283533;28;20075;-79
2023/08/25 08:05:45;;;;;;;6.78;4.35;;;19.40;99.90;;;;;;6293696;28;20049;-78
2023/08/25 08:08:48;;;;;;;5.20;4.70;;;19.40;99.90;;;;;;6293102;28;20105;-80
2023/08/25 08:11:50;;;;;;;7.35;4.85;;;19.40;99.90;;;;;;6289142;28;20068;-80
2023/08/25 08:14:51;;;;;;;4.88;4.40;;;19.50;99.90;;;;;;6286713;28;20136;-79
2023/08/25 08:17:55;;;;;;;6.03;3.63;;;19.50;99.90;;;;;;6284216;28;20101;-79
2023/08/25 08:20:57;;;;;;;7.97;4.20;;;19.50;99.90;;;;;;6264828;28;20057;-80
2023/08/25 08:24:00;;;;;;;6.82;3.88;;;19.60;99.90;;;;;;6273860;28;20037;-80
2023/08/25 08:27:02;;;;;;;8.85;5.15;;;19.60;99.90;;;;;;6270409;28;20041;-80
2023/08/25 08:30:04;;;;;;;4.47;4.00;;;19.60;99.90;;;;;;6272385;28;20151;-79
2023/08/25 08:33:07;;;;;;;6.00;5.10;;;19.70;99.90;;;;;;6287098;28;20041;-80
2023/08/25 08:36:12;;;;;;;4.75;3.67;;;19.70;99.90;;;;;;6273992;28;20504;-81
2023/08/25 08:39:14;;;;;;;4.13;3.60;;;19.80;99.90;;;;;;6269832;28;20045;-80
2023/08/25 08:42:17;;;;;;;6.93;4.07;;;20.00;99.90;;;;;;6285661;28;20094;-78
2023/08/25 08:45:24;;;;;;;3.67;3.38;;;20.00;99.90;;;;;;6286162;28;20105;-79
2023/08/25 08:48:27;;;;;;;7.40;4.07;;;20.10;99.90;;;;;;6284674;28;20124;-81
2023/08/25 08:51:31;;;;;;;4.40;3.60;;;20.20;99.90;;;;;;6287552;28;20055;-79
2023/08/25 08:54:35;;;;;;;3.13;2.90;;;20.30;99.90;;;;;;6286569;28;20045;-78
2023/08/25 08:57:37;;;;;;;18.08;4.70;;;20.40;99.90;;;;;;6281028;28;20191;-79
2023/08/25 09:00:40;;;;;;;5.93;3.92;;;20.60;99.90;;;;;;6280356;28;20037;-80
2023/08/25 09:03:47;;;;;;;9.27;3.45;;;20.70;99.90;;;;;;6279776;28;20049;-80
2023/08/25 09:06:51;;;;;;;4.70;4.30;;;20.70;99.90;;;;;;6282188;28;20120;-80
2023/08/25 09:09:53;;;;;;;4.47;3.63;;;20.90;99.90;;;;;;6280996;28;20556;-80
2023/08/25 09:12:54;;;;;;;5.03;3.63;;;21.10;99.90;;;;;;6283141;28;20108;-81
2023/08/25 09:15:56;;;;;;;6.53;4.40;;;21.30;99.90;;;;;;6284180;28;20063;-80
2023/08/25 09:19:02;;;;;;;6.47;4.00;;;21.40;99.90;;;;;;6284749;28;20087;-81
2023/08/25 09:22:05;;;;;;;4.90;4.32;;;21.50;99.90;;;;;;6284542;28;20045;-80
2023/08/25 09:25:07;;;;;;;4.03;3.65;;;21.70;99.90;;;;;;6283305;28;20052;-81
2023/08/25 09:28:10;;;;;;;7.22;5.60;;;21.80;99.90;;;;;;6283281;28;20055;-81
2023/08/25 09:31:21;;;;;;;8.63;5.65;;;21.90;99.90;;;;;;6286456;28;20052;-81
2023/08/25 09:34:25;;;;;;;4.05;3.50;;;21.90;99.90;;;;;;6296626;28;20100;-78
2023/08/25 09:37:40;;;;;;;7.65;4.60;;;22.00;99.90;;;;;;6293589;28;20059;-80
2023/08/25 09:40:46;;;;;;;7.38;3.65;;;22.00;99.90;;;;;;6280292;28;20044;-80
2023/08/25 09:43:48;;;;;;;4.03;3.50;;;22.10;99.90;;;;;;6276765;28;20055;-79
2023/08/25 09:46:52;;;;;;;3.50;3.20;;;22.10;99.90;;;;;;6276077;28;20041;-81
2023/08/25 09:49:55;;;;;;;6.30;4.05;;;22.10;99.90;;;;;;6250595;28;20049;-80
2023/08/25 09:52:57;;;;;;;6.18;3.85;;;22.20;99.90;;;;;;6274042;28;20528;-80
2023/08/25 09:56:02;;;;;;;8.25;4.15;;;22.30;99.90;;;;;;6251000;28;20083;-81
2023/08/25 09:59:05;;;;;;;3.95;3.55;;;22.40;99.90;;;;;;6252603;28;20519;-81
2023/08/25 10:02:09;;;;;;;6.22;4.30;;;22.40;99.90;;;;;;6275302;28;20045;-79
2023/08/25 10:05:12;;;;;;;5.95;4.15;;;22.40;99.90;;;;;;6276047;28;20068;-80
2023/08/25 10:08:15;;;;;;;4.25;3.85;;;22.50;99.90;;;;;;6275408;28;20041;-80
2023/08/25 10:11:19;;;;;;;4.60;3.75;;;22.50;99.90;;;;;;6275568;28;20060;-80
2023/08/25 10:14:26;;;;;;;5.03;4.63;;;22.60;99.90;;;;;;6275123;28;20046;-79
2023/08/25 10:17:29;;;;;;;6.75;4.15;;;22.70;99.90;;;;;;6275610;28;20045;-80
2023/08/25 10:20:33;;;;;;;8.68;3.83;;;22.80;99.90;;;;;;6277124;28;20040;-82
2023/08/25 10:23:38;;;;;;;7.97;3.72;;;22.90;99.90;;;;;;6269087;28;20045;-82
2023/08/25 10:26:40;;;;;;;7.90;3.72;;;23.20;99.90;;;;;;6265864;28;20057;-81
2023/08/25 10:29:42;;;;;;;4.50;3.58;;;23.40;99.90;;;;;;6266474;28;20048;-82
2023/08/25 10:33:04;;;;;;;5.22;3.17;;;23.60;99.90;;;;;;6267198;28;20053;-80
2023/08/25 10:36:14;;;;;;;3.42;3.13;;;23.70;99.90;;;;;;6260101;28;20053;-80
2023/08/25 10:39:18;;;;;;;4.97;3.42;;;23.80;99.90;;;;;;6255371;28;20053;-80
2023/08/25 10:42:23;;;;;;;5.35;3.90;;;24.00;99.90;;;;;;6249991;28;20057;-82
2023/08/25 10:45:26;;;;;;;5.93;3.40;;;24.30;99.90;;;;;;6274278;28;20116;-82
2023/08/25 10:48:28;;;;;;;4.60;3.40;;;24.50;99.90;;;;;;6267398;28;20432;-82
2023/08/25 10:51:33;;;;;;;7.65;4.93;;;24.90;99.90;;;;;;6258493;28;20045;-83
2023/08/25 10:54:35;;;;;;;4.22;3.33;;;25.10;99.90;;;;;;6255173;28;20045;-81
2023/08/25 10:57:41;;;;;;;3.13;2.80;;;25.30;99.90;;;;;;6248791;28;20044;-80
2023/08/25 11:00:44;;;;;;;3.15;2.83;;;25.50;99.90;;;;;;6269465;28;20048;-82
2023/08/25 11:04:03;;;;;;;4.32;3.00;;;25.60;99.90;;;;;;6276926;28;20069;-81
2023/08/25 11:07:06;;;;;;;3.00;2.80;;;25.80;99.90;;;;;;6268580;28;20048;-83
2023/08/25 11:10:12;;;;;;;4.10;3.30;;;26.00;99.90;;;;;;6249679;28;20567;-83
2023/08/25 11:13:14;;;;;;;5.00;2.30;;;26.00;99.90;;;;;;6250788;28;20051;-80
2023/08/25 11:16:21;;;;;;;3.63;2.45;;;26.10;99.90;;;;;;6260425;28;20040;-83
2023/08/25 11:19:24;;;;;;;2.10;2.00;;;26.30;99.90;;;;;;6272741;28;20465;-81
2023/08/25 11:22:27;;;;;;;3.10;2.60;;;26.20;99.90;;;;;;6265635;28;20135;-81
2023/08/25 11:25:29;;;;;;;2.25;2.03;;;26.20;99.90;;;;;;6267317;28;20053;-82
2023/08/25 11:28:30;;;;;;;4.40;2.92;;;26.00;99.90;;;;;;6249917;28;20435;-81
2023/08/25 11:31:33;;;;;;;3.50;2.67;;;25.90;99.90;;;;;;6267637;28;20516;-82
2023/08/25 11:34:35;;;;;;;3.13;2.55;;;25.80;99.90;;;;;;6258480;28;20052;-81
2023/08/25 11:37:40;;;;;;;4.30;2.83;;;25.70;99.90;;;;;;6251652;28;20038;-82
2023/08/25 11:40:41;;;;;;;4.55;2.75;;;25.60;99.90;;;;;;6250172;28;20412;-82
2023/08/25 11:43:45;;;;;;;2.40;2.20;;;25.50;99.90;;;;;;6266441;28;20045;-82
2023/08/25 11:46:47;;;;;;;5.35;2.67;;;25.40;99.90;;;;;;6257161;28;20046;-81
2023/08/25 11:49:49;;;;;;;5.35;2.85;;;25.30;99.90;;;;;;6258074;28;20045;-82
2023/08/25 11:52:54;;;;;;;3.60;3.30;;;25.20;99.90;;;;;;6272939;28;20396;-83
2023/08/25 11:56:03;;;;;;;3.42;2.60;;;25.00;99.90;;;;;;6262953;28;20113;-84
2023/08/25 11:59:08;;;;;;;2.90;2.60;;;24.90;99.90;;;;;;6270464;28;20060;-81
2023/08/25 12:02:15;;;;;;;5.70;3.72;;;24.90;99.90;;;;;;6264047;28;20610;-83
2023/08/25 12:05:19;;;;;;;4.75;3.67;;;24.80;99.90;;;;;;6261693;28;20063;-81
2023/08/25 12:08:24;;;;;;;3.58;3.15;;;24.80;99.90;;;;;;6247087;28;20046;-83
2023/08/25 12:11:26;;;;;;;4.97;2.40;;;24.90;99.90;;;;;;6249805;28;20053;-83
2023/08/25 12:14:29;;;;;;;6.88;3.03;;;25.10;99.90;;;;;;6262456;28;20072;-83
2023/08/25 12:17:31;;;;;;;5.10;3.28;;;25.40;99.90;;;;;;6257614;28;20063;-84
2023/08/25 12:20:33;;;;;;;4.28;2.88;;;25.70;99.90;;;;;;6272620;28;20051;-83
2023/08/25 12:23:37;;;;;;;5.90;3.35;;;25.90;99.90;;;;;;6272606;28;20049;-83
2023/08/25 12:26:40;;;;;;;3.63;3.33;;;26.00;99.90;;;;;;6250140;28;20136;-82
2023/08/25 12:29:42;;;;;;;3.67;3.38;;;26.10;99.90;;;;;;6254445;28;20056;-82
2023/08/25 12:32:44;;;;;;;7.22;3.20;;;26.20;99.90;;;;;;6273772;28;20045;-83
2023/08/25 12:35:46;;;;;;;5.05;2.63;;;26.20;99.90;;;;;;6275160;28;20049;-82
2023/08/25 12:38:49;;;;;;;4.22;3.78;;;26.30;99.90;;;;;;6274240;28;20049;-82
2023/08/25 12:41:50;;;;;;;3.33;2.78;;;26.60;99.90;;;;;;6274436;28;20071;-82
2023/08/25 12:44:52;;;;;;;5.18;2.70;;;26.90;99.90;;;;;;6274561;28;20416;-82
2023/08/25 12:47:54;;;;;;;7.93;3.83;;;27.10;99.90;;;;;;6273936;28;20051;-83
2023/08/25 12:50:56;;;;;;;5.82;3.58;;;27.30;99.90;;;;;;6273727;28;20056;-82
2023/08/25 12:53:59;;;;;;;4.85;3.13;;;27.40;99.90;;;;;;6274267;28;20049;-83
2023/08/25 12:57:00;;;;;;;10.68;3.08;;;27.50;99.90;;;;;;6277734;28;20041;-83
2023/08/25 13:00:03;;;;;;;5.45;3.70;;;27.40;99.90;;;;;;6278119;28;20397;-82
2023/08/25 13:03:05;;;;;;;4.80;3.10;;;27.50;99.90;;;;;;6280087;28;20056;-81
2023/08/25 13:06:07;;;;;;;3.78;3.38;;;27.60;99.90;;;;;;6279222;28;20051;-83
2023/08/25 13:09:10;;;;;;;7.32;3.30;;;28.20;99.90;;;;;;6277822;28;20384;-82
2023/08/25 13:12:12;;;;;;;5.60;3.17;;;28.50;99.90;;;;;;6274458;28;20060;-81
2023/08/25 13:15:14;;;;;;;6.45;3.70;;;28.70;99.90;;;;;;6261800;28;20054;-83
2023/08/25 13:18:16;;;;;;;5.10;3.53;;;28.80;99.90;;;;;;6256580;28;20045;-80
2023/08/25 13:21:17;;;;;;;5.82;3.05;;;28.80;99.90;;;;;;6272957;28;20049;-81
2023/08/25 13:24:20;;;;;;;6.47;3.50;;;29.00;99.90;;;;;;6268418;28;20512;-81
2023/08/25 13:27:23;;;;;;;5.80;3.42;;;29.10;99.90;;;;;;6283150;28;20061;-83
2023/08/25 13:30:25;;;;;;;6.05;3.42;;;29.50;99.90;;;;;;6280232;28;20044;-81
2023/08/25 13:33:27;;;;;;;5.05;3.28;;;29.60;99.90;;;;;;6282428;28;20045;-81
2023/08/25 13:36:29;;;;;;;10.52;3.15;;;29.60;99.90;;;;;;6273433;28;20041;-83
2023/08/25 13:39:34;;;;;;;5.30;3.30;;;29.90;99.90;;;;;;6271911;28;20420;-82
2023/08/25 13:42:36;;;;;;;6.32;4.18;;;30.20;99.90;;;;;;6266238;28;20539;-82
2023/08/25 13:45:38;;;;;;;5.72;3.08;;;30.20;99.90;;;;;;6261680;28;20051;-84
2023/08/25 13:48:40;;;;;;;3.30;3.00;;;30.10;99.90;;;;;;6282760;28;20041;-81
2023/08/25 13:51:41;;;;;;;10.13;2.88;;;29.80;99.90;;;;;;6283164;28;20048;-83
2023/08/25 13:54:44;;;;;;;6.95;2.75;;;29.60;99.90;;;;;;6281913;28;20049;-82
2023/08/25 13:57:46;;;;;;;6.20;3.42;;;29.50;99.90;;;;;;6279085;28;20139;-83
2023/08/25 14:00:48;;;;;;;2.97;2.70;;;29.50;99.90;;;;;;6275453;28;20472;-82
2023/08/25 14:03:50;;;;;;;3.83;2.70;;;29.20;99.90;;;;;;6277543;28;20053;-81
2023/08/25 14:06:51;;;;;;;4.88;2.88;;;29.20;99.90;;;;;;6270381;28;20066;-84
2023/08/25 14:09:54;;;;;;;5.30;3.03;;;29.50;99.90;;;;;;6280791;28;20045;-84
2023/08/25 14:12:56;;;;;;;5.43;3.60;;;29.60;99.90;;;;;;6281503;28;20051;-82
2023/08/25 14:15:58;;;;;;;5.60;3.83;;;29.70;99.90;;;;;;6280815;28;20063;-82
2023/08/25 14:18:59;;;;;;;4.28;3.00;;;30.20;99.90;;;;;;6280886;28;20059;-83
2023/08/25 14:22:04;;;;;;;4.68;3.15;;;30.40;99.90;;;;;;6279380;28;20045;-83
2023/08/25 14:25:07;;;;;;;5.35;3.30;;;30.80;99.90;;;;;;6281278;28;20061;-83
2023/08/25 14:28:09;;;;;;;3.63;3.03;;;31.00;99.90;;;;;;6280912;28;20057;-84
2023/08/25 14:31:11;;;;;;;3.00;2.70;;;30.90;99.90;;;;;;6282499;28;20049;-83
2023/08/25 14:34:13;;;;;;;4.63;2.95;;;31.20;99.90;;;;;;6280854;28;20055;-81
2023/08/25 14:37:15;;;;;;;4.07;2.78;;;31.40;99.90;;;;;;6279642;28;20048;-82
2023/08/25 14:40:18;;;;;;;5.47;3.08;;;31.70;99.90;;;;;;6272884;28;20051;-84
2023/08/25 14:43:19;;;;;;;3.28;2.97;;;31.30;99.90;;;;;;6287759;28;20053;-82
2023/08/25 14:46:22;;;;;;;5.30;3.15;;;31.50;99.90;;;;;;6282658;28;20542;-80
2023/08/25 14:49:24;;;;;;;5.93;3.38;;;31.80;99.90;;;;;;6281404;28;20053;-82
2023/08/25 14:52:26;;;;;;;6.10;3.05;;;31.70;99.90;;;;;;6282597;28;20381;-82
2023/08/25 14:55:29;;;;;;;9.85;3.13;;;31.90;99.90;;;;;;6283743;28;20074;-82
2023/08/25 14:58:31;;;;;;;3.95;2.95;;;31.90;99.90;;;;;;6281189;28;20113;-83
2023/08/25 15:01:33;;;;;;;6.90;3.13;;;31.80;99.90;;;;;;6282845;28;20056;-82
2023/08/25 15:04:35;;;;;;;4.40;3.00;;;31.60;99.90;;;;;;6281775;28;20045;-80
2023/08/25 15:07:37;;;;;;;2.88;2.67;;;31.90;99.90;;;;;;6281585;28;20108;-82
2023/08/25 15:10:42;;;;;;;5.18;3.75;;;31.90;99.90;;;;;;6281034;28;20048;-82
2023/08/25 15:13:44;;;;;;;5.07;3.00;;;31.80;99.40;;;;;;6279940;28;20045;-81
2023/08/25 15:16:46;;;;;;;6.10;2.75;;;31.50;99.00;;;;;;6280521;28;20059;-82
2023/08/25 15:19:47;;;;;;;7.20;3.70;;;31.40;98.80;;;;;;6281741;28;20049;-83
2023/08/25 15:22:49;;;;;;;5.35;3.03;;;31.30;98.40;;;;;;6282194;28;20052;-83
2023/08/25 15:25:54;;;;;;;3.88;3.15;;;31.40;98.30;;;;;;6282653;28;20050;-81
2023/08/25 15:28:56;;;;;;;4.72;2.83;;;31.30;97.80;;;;;;6282372;28;20048;-83
2023/08/25 15:31:57;;;;;;;4.10;2.72;;;31.20;97.90;;;;;;6278048;28;20056;-83
2023/08/25 15:34:59;;;;;;;3.30;2.78;;;31.20;97.40;;;;;;6252041;28;20053;-82
2023/08/25 15:38:01;;;;;;;5.75;3.45;;;31.40;97.20;;;;;;6254462;28;20355;-81
2023/08/25 15:41:07;;;;;;;7.78;4.28;;;31.20;96.60;;;;;;6259688;28;20052;-81
2023/08/25 15:44:09;;;;;;;5.63;3.05;;;30.80;96.70;;;;;;6261393;28;20081;-80
2023/08/25 15:47:11;;;;;;;3.75;3.35;;;30.60;97.10;;;;;;6262065;28;20049;-81
2023/08/25 15:50:12;;;;;;;4.38;3.67;;;30.40;97.00;;;;;;6260520;28;20045;-79
2023/08/25 15:53:15;;;;;;;4.85;3.38;;;30.20;95.90;;;;;;6262112;28;20049;-82
2023/08/25 15:56:18;;;;;;;4.88;3.33;;;29.80;94.70;;;;;;6260188;28;20056;-81